createdAt,value
2023-03-20T00:00:04.080Z,51.291183
2023-03-20T00:01:04.123Z,51.291122
2023-03-20T00:02:04.100Z,51.291164
2023-03-20T00:03:04.052Z,51.291168
2023-03-20T00:04:04.125Z,51.291210
2023-03-20T00:05:04.083Z,51.291203
2023-03-20T00:06:04.003Z,51.291241
2023-03-20T00:07:04.060Z,51.291225
2023-03-20T00:08:03.967Z,51.291248
2023-03-20T00:09:07.465Z,51.291199
2023-03-20T00:10:03.922Z,51.291229
2023-03-20T00:11:03.939Z,51.291206
2023-03-20T00:12:04.009Z,51.291241
2023-03-20T00:13:03.941Z,51.291210
2023-03-20T00:14:03.907Z,51.291206
2023-03-20T00:15:03.897Z,51.291203
2023-03-20T00:16:03.964Z,51.291248
2023-03-20T00:17:03.866Z,51.291233
2023-03-20T00:18:03.885Z,51.291210
2023-03-20T00:19:03.839Z,51.291229
2023-03-20T00:20:03.819Z,51.291035
2023-03-20T00:21:03.823Z,51.291023
2023-03-20T00:22:03.847Z,51.291054
2023-03-20T00:23:03.842Z,51.291042
2023-03-20T00:24:03.995Z,51.291115
2023-03-20T00:25:03.778Z,51.291073
2023-03-20T00:26:03.758Z,51.290985
2023-03-20T00:27:03.742Z,51.291149
2023-03-20T00:28:03.770Z,51.291237
2023-03-20T00:29:03.746Z,51.291176
2023-03-20T00:30:03.713Z,51.291248
2023-03-20T00:31:03.721Z,51.291187
2023-03-20T00:32:03.702Z,51.291031
2023-03-20T00:33:03.840Z,51.291004
2023-03-20T00:34:03.748Z,51.291199
2023-03-20T00:35:03.654Z,51.291264
2023-03-20T00:36:03.676Z,51.291100
2023-03-20T00:37:03.632Z,51.291248
2023-03-20T00:38:03.629Z,51.291164
2023-03-20T00:39:03.655Z,51.291328
2023-03-20T00:40:03.614Z,51.290932
2023-03-20T00:41:03.603Z,51.291191
2023-03-20T00:42:03.598Z,51.291218
2023-03-20T00:43:03.569Z,51.291218
2023-03-20T00:44:03.568Z,51.291088
2023-03-20T00:45:03.610Z,51.291191
2023-03-20T00:46:03.539Z,51.291046
2023-03-20T00:47:03.660Z,51.291084
2023-03-20T00:48:03.532Z,51.291546
2023-03-20T00:49:03.471Z,51.290874
2023-03-20T00:50:03.495Z,51.290730
2023-03-20T00:51:03.538Z,51.291000
2023-03-20T00:52:03.437Z,51.291584
2023-03-20T00:53:03.427Z,51.291470
2023-03-20T00:54:03.445Z,51.291435
2023-03-20T00:55:03.498Z,51.291386
2023-03-20T00:56:03.430Z,51.291180
2023-03-20T00:57:03.405Z,51.291084
2023-03-20T00:58:03.373Z,51.291298
2023-03-20T00:59:03.358Z,51.291348
2023-03-20T01:00:03.414Z,51.291317
2023-03-20T01:01:03.392Z,51.291252
2023-03-20T01:02:03.406Z,51.291229
2023-03-20T01:03:03.343Z,51.291245
2023-03-20T01:04:03.293Z,51.291363
2023-03-20T01:05:03.298Z,51.291416
2023-03-20T01:06:03.285Z,51.291504
2023-03-20T01:07:03.258Z,51.291237
2023-03-20T01:08:03.261Z,51.291183
2023-03-20T01:09:03.272Z,51.291241
2023-03-20T01:10:03.262Z,51.291298
2023-03-20T01:11:03.299Z,51.291214
2023-03-20T01:12:03.186Z,51.291225
2023-03-20T01:13:03.186Z,51.291042
2023-03-20T01:14:03.171Z,51.291237
2023-03-20T01:15:03.171Z,51.291214
2023-03-20T01:16:03.300Z,51.291313
2023-03-20T01:17:03.149Z,51.291298
2023-03-20T01:18:03.127Z,51.291298
2023-03-20T01:19:03.676Z,51.291321
2023-03-20T01:20:03.141Z,51.291256
2023-03-20T01:21:03.092Z,51.291275
2023-03-20T01:22:03.108Z,51.291275
2023-03-20T01:23:03.072Z,51.291245
2023-03-20T01:24:03.052Z,51.291203
2023-03-20T01:25:03.048Z,51.291161
2023-03-20T01:26:03.042Z,51.291195
2023-03-20T01:27:03.050Z,51.291218
2023-03-20T01:28:03.493Z,51.291252
2023-03-20T01:29:02.997Z,51.291248
2023-03-20T01:30:03.004Z,51.291241
2023-03-20T01:31:02.994Z,51.291260
2023-03-20T01:32:02.994Z,51.291203
2023-03-20T01:33:03.228Z,51.291130
2023-03-20T01:34:02.942Z,51.291000
2023-03-20T01:35:02.933Z,51.291229
2023-03-20T01:36:02.948Z,51.291206
2023-03-20T01:37:02.936Z,51.291122
2023-03-20T01:38:02.918Z,51.291199
2023-03-20T01:39:02.886Z,51.291172
2023-03-20T01:40:02.859Z,51.291088
2023-03-20T01:41:02.886Z,51.291187
2023-03-20T01:42:02.870Z,51.291439
2023-03-20T01:43:02.931Z,51.291351
2023-03-20T01:44:02.845Z,51.291279
2023-03-20T01:45:02.801Z,51.291225
2023-03-20T01:46:02.868Z,51.291313
2023-03-20T01:47:02.826Z,51.291317
2023-03-20T01:48:02.885Z,51.291195
2023-03-20T01:49:02.973Z,51.291214
2023-03-20T01:50:03.255Z,51.291256
2023-03-20T01:51:03.035Z,51.291214
2023-03-20T01:52:03.294Z,51.291168
2023-03-20T01:53:03.125Z,51.291130
2023-03-20T01:54:03.096Z,51.291187
2023-03-20T01:55:02.811Z,51.291237
2023-03-20T01:56:03.705Z,51.291233
2023-03-20T01:57:02.672Z,51.291351
2023-03-20T01:58:04.833Z,51.291172
2023-03-20T01:59:02.655Z,51.291283
2023-03-20T02:00:02.652Z,51.291237
2023-03-20T02:01:02.625Z,51.291035
2023-03-20T02:02:02.590Z,51.291111
2023-03-20T02:03:02.609Z,51.291103
2023-03-20T02:04:02.611Z,51.291466
2023-03-20T02:05:02.628Z,51.291092
2023-03-20T02:06:02.620Z,51.291187
2023-03-20T02:07:03.142Z,51.291058
2023-03-20T02:08:05.868Z,51.291103
2023-03-20T02:09:03.562Z,51.291271
2023-03-20T02:10:02.521Z,51.291283
2023-03-20T02:11:02.507Z,51.291222
2023-03-20T02:12:02.546Z,51.291206
2023-03-20T02:13:02.463Z,51.291183
2023-03-20T02:14:03.315Z,51.291264
2023-03-20T02:15:02.491Z,51.291206
2023-03-20T02:16:02.455Z,51.291210
2023-03-20T02:17:02.529Z,51.291225
2023-03-20T02:18:02.407Z,51.291351
2023-03-20T02:19:02.448Z,51.291302
2023-03-20T02:20:02.484Z,51.291294
2023-03-20T02:21:02.361Z,51.291210
2023-03-20T02:22:02.366Z,51.291142
2023-03-20T02:23:03.131Z,51.291073
2023-03-20T02:24:02.353Z,51.291119
2023-03-20T02:25:02.401Z,51.291164
2023-03-20T02:26:02.348Z,51.291317
2023-03-20T02:27:02.324Z,51.291115
2023-03-20T02:28:02.322Z,51.291134
2023-03-20T02:29:02.290Z,51.291302
2023-03-20T02:30:02.312Z,51.291199
2023-03-20T02:31:02.304Z,51.291225
2023-03-20T02:32:02.271Z,51.291229
2023-03-20T02:33:02.277Z,51.291233
2023-03-20T02:34:02.235Z,51.291267
2023-03-20T02:35:02.274Z,51.291363
2023-03-20T02:36:02.265Z,51.291348
2023-03-20T02:37:02.190Z,51.291214
2023-03-20T02:38:02.190Z,51.291237
2023-03-20T02:39:02.212Z,51.291229
2023-03-20T02:40:02.204Z,51.291256
2023-03-20T02:41:02.174Z,51.291252
2023-03-20T02:42:02.123Z,51.291164
2023-03-20T02:43:02.137Z,51.291183
2023-03-20T02:44:02.128Z,51.291191
2023-03-20T02:45:02.133Z,51.291183
2023-03-20T02:46:02.203Z,51.291195
2023-03-20T02:47:02.106Z,51.291283
2023-03-20T02:48:02.082Z,51.291233
2023-03-20T02:49:02.076Z,51.291252
2023-03-20T02:50:02.061Z,51.291245
2023-03-20T02:51:02.093Z,51.291264
2023-03-20T02:52:02.017Z,51.291298
2023-03-20T02:53:02.011Z,51.291210
2023-03-20T02:54:02.020Z,51.291161
2023-03-20T02:55:02.022Z,51.291100
2023-03-20T02:56:01.979Z,51.291058
2023-03-20T02:57:02.002Z,51.291138
2023-03-20T02:58:01.942Z,51.291145
2023-03-20T02:59:01.926Z,51.291100
2023-03-20T03:00:01.941Z,51.291218
2023-03-20T03:01:01.903Z,51.291252
2023-03-20T03:02:01.968Z,51.291206
2023-03-20T03:03:01.939Z,51.291248
2023-03-20T03:04:01.905Z,51.291214
2023-03-20T03:05:01.881Z,51.291245
2023-03-20T03:06:01.841Z,51.291126
2023-03-20T03:07:01.881Z,51.291107
2023-03-20T03:08:01.854Z,51.291180
2023-03-20T03:09:01.840Z,51.291172
2023-03-20T03:10:01.805Z,51.291138
2023-03-20T03:11:01.810Z,51.291115
2023-03-20T03:12:02.801Z,51.291088
2023-03-20T03:13:01.782Z,51.291096
2023-03-20T03:14:01.780Z,51.291183
2023-03-20T03:15:01.743Z,51.291187
2023-03-20T03:16:01.765Z,51.291203
2023-03-20T03:17:01.718Z,51.291183
2023-03-20T03:18:01.758Z,51.291096
2023-03-20T03:19:01.707Z,51.291069
2023-03-20T03:20:01.696Z,51.291157
2023-03-20T03:21:01.659Z,51.291218
2023-03-20T03:22:01.640Z,51.291164
2023-03-20T03:23:02.679Z,51.291164
2023-03-20T03:24:01.631Z,51.291100
2023-03-20T03:25:01.612Z,51.291206
2023-03-20T03:26:01.629Z,51.291183
2023-03-20T03:27:01.609Z,51.291264
2023-03-20T03:28:01.585Z,51.291183
2023-03-20T03:29:01.648Z,51.291119
2023-03-20T03:30:01.571Z,51.291180
2023-03-20T03:31:01.586Z,51.291248
2023-03-20T03:32:01.561Z,51.291233
2023-03-20T03:33:01.541Z,51.291195
2023-03-20T03:34:01.523Z,51.291237
2023-03-20T03:35:01.502Z,51.291252
2023-03-20T03:36:01.508Z,51.291149
2023-03-20T03:37:01.469Z,51.291344
2023-03-20T03:38:01.525Z,51.291279
2023-03-20T03:39:01.475Z,51.291203
2023-03-20T03:40:01.434Z,51.291229
2023-03-20T03:41:01.438Z,51.291294
2023-03-20T03:42:01.433Z,51.291164
2023-03-20T03:43:01.430Z,51.291241
2023-03-20T03:44:01.434Z,51.291225
2023-03-20T03:45:01.388Z,51.291290
2023-03-20T03:46:01.384Z,51.291355
2023-03-20T03:47:01.454Z,51.291367
2023-03-20T03:48:01.378Z,51.291218
2023-03-20T03:49:01.360Z,51.291355
2023-03-20T03:50:01.326Z,51.291210
2023-03-20T03:51:01.310Z,51.291027
2023-03-20T03:52:01.309Z,51.291161
2023-03-20T03:53:01.333Z,51.291195
2023-03-20T03:54:01.333Z,51.290974
2023-03-20T03:55:01.275Z,51.291100
2023-03-20T03:56:01.256Z,51.291298
2023-03-20T03:57:01.711Z,51.290947
2023-03-20T03:58:01.252Z,51.291065
2023-03-20T03:59:01.250Z,51.291191
2023-03-20T04:00:01.226Z,51.290966
2023-03-20T04:01:01.197Z,51.291454
2023-03-20T04:02:01.225Z,51.291508
2023-03-20T04:03:01.195Z,51.291134
2023-03-20T04:04:01.163Z,51.290932
2023-03-20T04:05:01.243Z,51.291260
2023-03-20T04:06:01.173Z,51.291340
2023-03-20T04:07:01.109Z,51.291969
2023-03-20T04:08:01.133Z,51.291492
2023-03-20T04:09:01.181Z,51.290833
2023-03-20T04:10:01.091Z,51.292061
2023-03-20T04:11:01.076Z,51.292061
2023-03-20T04:12:01.084Z,51.292061
2023-03-20T04:13:01.495Z,51.292061
2023-03-20T04:14:01.073Z,51.292061
2023-03-20T04:15:03.091Z,51.292061
2023-03-20T04:16:01.064Z,51.292061
2023-03-20T04:17:01.000Z,51.292061
2023-03-20T04:18:01.016Z,51.292061
2023-03-20T04:19:00.989Z,51.292061
2023-03-20T04:20:00.973Z,51.292061
2023-03-20T04:21:00.971Z,51.292061
2023-03-20T04:22:01.295Z,51.292061
2023-03-20T04:23:00.921Z,51.292061
2023-03-20T04:24:00.917Z,51.292061
2023-03-20T04:25:00.947Z,51.292061
2023-03-20T04:26:00.893Z,51.292061
2023-03-20T04:27:00.885Z,51.292061
2023-03-20T04:28:00.876Z,51.292061
2023-03-20T04:29:00.858Z,51.292061
2023-03-20T04:30:00.903Z,51.292061
2023-03-20T04:31:00.838Z,51.292061
2023-03-20T04:32:00.848Z,51.292061
2023-03-20T04:33:00.870Z,51.292061
2023-03-20T04:34:00.795Z,51.292061
2023-03-20T04:35:00.822Z,51.292061
2023-03-20T04:36:00.827Z,51.292061
2023-03-20T04:37:00.776Z,51.292061
2023-03-20T04:38:00.753Z,51.292061
2023-03-20T04:39:00.727Z,51.292061
2023-03-20T04:40:00.743Z,51.292061
2023-03-20T04:41:00.737Z,51.292061
2023-03-20T04:42:00.713Z,51.292061
2023-03-20T04:43:00.712Z,51.292061
2023-03-20T04:44:00.680Z,51.292061
2023-03-20T04:45:00.674Z,51.292061
2023-03-20T04:46:00.795Z,51.292061
2023-03-20T04:47:00.650Z,51.292061
2023-03-20T04:48:00.653Z,51.292061
2023-03-20T04:49:00.628Z,51.292061
2023-03-20T04:50:00.635Z,51.292061
2023-03-20T04:51:00.653Z,51.292061
2023-03-20T04:52:00.585Z,51.292061
2023-03-20T04:53:00.597Z,51.292061
2023-03-20T04:54:00.572Z,51.292061
2023-03-20T04:55:00.554Z,51.292061
2023-03-20T04:56:02.030Z,51.292061
2023-03-20T04:57:00.546Z,51.292061
2023-03-20T04:58:00.517Z,51.292061
2023-03-20T04:59:00.483Z,51.292061
2023-03-20T05:00:00.476Z,51.292061
2023-03-20T05:01:00.549Z,51.292061
2023-03-20T05:02:00.489Z,51.292061
2023-03-20T05:03:00.451Z,51.292061
2023-03-20T05:04:00.624Z,51.292061
2023-03-20T05:05:00.420Z,51.292061
2023-03-20T05:06:00.428Z,51.292061
2023-03-20T05:07:00.475Z,51.292061
2023-03-20T05:08:01.156Z,51.292061
2023-03-20T05:09:00.488Z,51.292061
2023-03-20T05:10:01.405Z,51.292061
2023-03-20T05:11:00.429Z,51.292061
2023-03-20T05:12:00.401Z,51.292061
2023-03-20T05:13:00.348Z,51.292061
2023-03-20T05:14:00.311Z,51.292061
2023-03-20T05:15:00.324Z,51.292061
2023-03-20T05:16:00.302Z,51.292061
2023-03-20T05:17:01.031Z,51.292061
2023-03-20T05:18:00.295Z,51.292061
2023-03-20T05:19:00.269Z,51.292061
2023-03-20T05:20:00.254Z,51.292061
2023-03-20T05:21:00.221Z,51.292061
2023-03-20T05:22:00.240Z,51.292061
2023-03-20T05:23:00.213Z,51.292061
2023-03-20T05:24:00.201Z,51.292061
2023-03-20T05:25:00.199Z,51.292061
2023-03-20T05:26:00.172Z,51.292061
2023-03-20T05:27:00.153Z,51.292061
2023-03-20T05:28:00.211Z,51.292061
2023-03-20T05:29:00.116Z,51.292061
2023-03-20T05:30:00.129Z,51.292061
2023-03-20T05:31:00.174Z,51.292061
2023-03-20T05:32:00.095Z,51.292061
2023-03-20T05:33:00.203Z,51.292061
2023-03-20T05:34:00.092Z,51.292061
2023-03-20T05:35:00.052Z,51.292061
2023-03-20T05:36:00.058Z,51.292061
2023-03-20T05:37:00.067Z,51.292061
2023-03-20T05:38:00.069Z,51.292061
2023-03-20T05:38:59.998Z,51.292061
2023-03-20T05:40:00.004Z,51.292061
2023-03-20T05:40:59.988Z,51.292061
2023-03-20T05:41:59.960Z,51.292061
2023-03-20T05:43:00.019Z,51.292061
2023-03-20T05:43:59.936Z,51.292061
2023-03-20T05:44:59.929Z,51.292061
2023-03-20T05:45:59.999Z,51.292061
2023-03-20T05:46:59.915Z,51.292061
2023-03-20T05:47:59.917Z,51.292061
2023-03-20T05:48:59.932Z,51.292061
2023-03-20T05:49:59.868Z,51.292061
2023-03-20T05:50:59.866Z,51.292061
2023-03-20T05:51:59.866Z,51.292061
2023-03-20T05:52:59.842Z,51.292061
2023-03-20T05:53:59.847Z,51.292061
2023-03-20T05:54:59.832Z,51.292061
2023-03-20T05:55:59.789Z,51.292061
2023-03-20T05:56:59.845Z,51.292061
2023-03-20T05:57:59.798Z,51.292061
2023-03-20T05:58:59.812Z,51.292061
2023-03-20T05:59:59.745Z,51.292061
2023-03-20T06:00:59.760Z,51.292061
2023-03-20T06:01:59.756Z,51.292061
2023-03-20T06:02:59.845Z,51.292061
2023-03-20T06:03:59.823Z,51.292061
2023-03-20T06:04:59.719Z,51.292061
2023-03-20T06:05:59.672Z,51.292061
2023-03-20T06:06:59.675Z,51.292061
2023-03-20T06:07:59.651Z,51.292061
2023-03-20T06:08:59.654Z,51.292061
2023-03-20T06:09:59.655Z,51.292061
2023-03-20T06:10:59.632Z,51.292061
2023-03-20T06:11:59.610Z,51.292061
2023-03-20T06:12:59.613Z,51.292061
2023-03-20T06:13:59.592Z,51.292061
2023-03-20T06:14:59.625Z,51.292061
2023-03-20T06:15:59.564Z,51.292061
2023-03-20T06:16:59.551Z,51.292061
2023-03-20T06:17:59.553Z,51.292061
2023-03-20T06:18:59.556Z,51.292061
2023-03-20T06:19:59.576Z,51.292061
2023-03-20T06:20:59.495Z,51.292061
2023-03-20T06:21:59.499Z,51.292061
2023-03-20T06:22:59.522Z,51.292061
2023-03-20T06:23:59.483Z,51.292061
2023-03-20T06:24:59.481Z,51.292061
2023-03-20T06:25:59.484Z,51.292061
2023-03-20T06:26:59.461Z,51.292061
2023-03-20T06:27:59.422Z,51.292061
2023-03-20T06:28:59.422Z,51.292061
2023-03-20T06:29:59.426Z,51.292061
2023-03-20T06:30:59.447Z,51.292061
2023-03-20T06:31:59.361Z,51.292061
2023-03-20T06:32:59.442Z,51.291027
2023-03-20T06:33:59.414Z,51.291153
2023-03-20T06:34:59.337Z,51.291157
2023-03-20T06:35:59.387Z,51.291100
2023-03-20T06:36:59.311Z,51.291180
2023-03-20T06:37:59.288Z,51.291195
2023-03-20T06:38:59.307Z,51.291161
2023-03-20T06:39:59.273Z,51.291100
2023-03-20T06:40:59.252Z,51.291065
2023-03-20T06:41:59.291Z,51.291145
2023-03-20T06:42:59.224Z,51.291042
2023-03-20T06:43:59.241Z,51.291061
2023-03-20T06:44:59.214Z,51.291103
2023-03-20T06:45:59.208Z,51.291103
2023-03-20T06:46:59.190Z,51.291130
2023-03-20T06:47:59.180Z,51.291172
2023-03-20T06:48:59.176Z,51.291222
2023-03-20T06:49:59.152Z,51.291100
2023-03-20T06:50:59.192Z,51.291145
2023-03-20T06:51:59.172Z,51.291142
2023-03-20T06:52:59.114Z,51.291206
2023-03-20T06:53:59.111Z,51.291195
2023-03-20T06:54:59.117Z,51.291229
2023-03-20T06:55:59.070Z,51.291164
2023-03-20T06:56:59.134Z,51.291203
2023-03-20T06:57:59.046Z,51.291214
2023-03-20T06:58:59.047Z,51.291229
2023-03-20T06:59:59.041Z,51.291294
2023-03-20T07:00:59.056Z,51.291313
2023-03-20T07:01:59.081Z,51.291313
2023-03-20T07:03:01.079Z,51.291191
2023-03-20T07:03:58.967Z,51.291275
2023-03-20T07:04:59.134Z,51.291203
2023-03-20T07:05:58.970Z,51.291180
2023-03-20T07:06:59.269Z,51.291180
2023-03-20T07:07:58.961Z,51.291180
2023-03-20T07:08:58.935Z,51.291180
2023-03-20T07:09:58.906Z,51.291180
2023-03-20T07:10:58.933Z,51.291180
2023-03-20T07:11:58.889Z,51.291180
2023-03-20T07:12:58.913Z,51.291180
2023-03-20T07:13:58.914Z,51.291180
2023-03-20T07:15:00.388Z,51.291180
2023-03-20T07:16:04.580Z,51.291180
2023-03-20T07:16:59.027Z,51.291180
2023-03-20T07:17:58.877Z,51.291180
2023-03-20T07:18:58.891Z,51.291180
2023-03-20T07:19:58.806Z,51.291180
2023-03-20T07:20:58.817Z,51.291180
2023-03-20T07:21:58.800Z,51.291180
2023-03-20T07:22:58.832Z,51.291180
2023-03-20T07:23:58.806Z,51.290840
2023-03-20T07:24:58.898Z,51.290966
2023-03-20T07:25:58.750Z,51.291218
2023-03-20T07:26:58.729Z,51.291088
2023-03-20T07:27:58.782Z,51.290985
2023-03-20T07:28:59.731Z,51.291191
2023-03-20T07:29:58.714Z,51.291279
2023-03-20T07:30:58.681Z,51.291264
2023-03-20T07:31:58.671Z,51.291187
2023-03-20T07:32:58.716Z,51.291130
2023-03-20T07:33:58.650Z,51.291119
2023-03-20T07:34:58.642Z,51.291233
2023-03-20T07:35:58.739Z,51.291222
2023-03-20T07:36:58.608Z,51.291126
2023-03-20T07:37:58.594Z,51.291054
2023-03-20T07:38:58.627Z,51.291180
2023-03-20T07:39:58.704Z,51.291271
2023-03-20T07:40:58.590Z,51.291214
2023-03-20T07:41:58.602Z,51.291199
2023-03-20T07:42:58.527Z,51.291290
2023-03-20T07:43:58.712Z,51.291267
2023-03-20T07:44:58.585Z,51.291286
2023-03-20T07:45:58.547Z,51.291245
2023-03-20T07:46:58.625Z,51.291183
2023-03-20T07:47:58.584Z,51.291298
2023-03-20T07:48:58.588Z,51.291267
2023-03-20T07:49:58.455Z,51.291245
2023-03-20T07:50:58.549Z,51.291225
2023-03-20T07:51:58.497Z,51.291290
2023-03-20T07:52:58.630Z,51.291222
2023-03-20T07:53:58.426Z,51.291237
2023-03-20T07:54:58.533Z,51.291328
2023-03-20T07:55:58.476Z,51.291325
2023-03-20T07:56:59.525Z,51.291298
2023-03-20T07:57:58.686Z,51.291283
2023-03-20T07:58:58.623Z,51.291290
2023-03-20T07:59:58.717Z,51.291283
2023-03-20T08:00:59.175Z,51.291237
2023-03-20T08:01:59.101Z,51.291195
2023-03-20T08:02:58.394Z,51.291203
2023-03-20T08:03:58.567Z,51.291283
2023-03-20T08:04:58.350Z,51.291260
2023-03-20T08:05:58.791Z,51.291260
2023-03-20T08:06:58.232Z,51.291248
2023-03-20T08:07:58.214Z,51.291286
2023-03-20T08:08:58.201Z,51.291294
2023-03-20T08:09:58.202Z,51.291328
2023-03-20T08:10:58.793Z,51.291309
2023-03-20T08:11:58.187Z,51.291298
2023-03-20T08:12:58.161Z,51.291195
2023-03-20T08:13:58.178Z,51.291145
2023-03-20T08:14:58.181Z,51.291176
2023-03-20T08:15:58.113Z,51.291256
2023-03-20T08:17:12.906Z,51.291248
2023-03-20T08:17:58.145Z,51.291267
2023-03-20T08:18:58.494Z,51.291271
2023-03-20T08:19:58.201Z,51.291241
2023-03-20T08:20:58.936Z,51.291252
2023-03-20T08:21:58.078Z,51.291187
2023-03-20T08:22:58.065Z,51.291203
2023-03-20T08:23:58.026Z,51.291279
2023-03-20T08:24:59.026Z,51.291298
2023-03-20T08:25:57.997Z,51.291286
2023-03-20T08:26:57.988Z,51.291206
2023-03-20T08:27:58.000Z,51.291195
2023-03-20T08:28:58.091Z,51.291252
2023-03-20T08:29:57.955Z,51.291222
2023-03-20T08:30:58.050Z,51.291264
2023-03-20T08:31:57.943Z,51.291275
2023-03-20T08:32:58.010Z,51.291252
2023-03-20T08:33:57.893Z,51.291267
2023-03-20T08:34:57.886Z,51.291153
2023-03-20T08:35:57.932Z,51.291248
2023-03-20T08:36:57.873Z,51.291225
2023-03-20T08:37:57.913Z,51.291195
2023-03-20T08:38:57.868Z,51.291195
2023-03-20T08:39:57.831Z,51.291286
2023-03-20T08:40:57.838Z,51.291283
2023-03-20T08:41:59.662Z,51.291355
2023-03-20T08:42:57.800Z,51.291348
2023-03-20T08:43:57.813Z,51.291138
2023-03-20T08:44:57.773Z,51.291325
2023-03-20T08:45:57.754Z,51.291382
2023-03-20T08:46:57.751Z,51.291424
2023-03-20T08:47:57.721Z,51.291504
2023-03-20T08:48:57.740Z,51.291374
2023-03-20T08:49:57.737Z,51.291374
2023-03-20T08:50:57.736Z,51.291424
2023-03-20T08:51:57.693Z,51.291393
2023-03-20T08:52:57.663Z,51.291191
2023-03-20T08:53:57.726Z,51.291195
2023-03-20T08:54:57.666Z,51.291080
2023-03-20T08:55:57.631Z,51.291218
2023-03-20T08:56:57.619Z,51.291241
2023-03-20T08:57:57.599Z,51.291119
2023-03-20T08:58:57.632Z,51.291218
2023-03-20T08:59:57.585Z,51.291306
2023-03-20T09:00:57.572Z,51.291302
2023-03-20T09:01:57.832Z,51.291405
2023-03-20T09:02:57.587Z,51.291367
2023-03-20T09:03:57.530Z,51.291374
2023-03-20T09:04:57.600Z,51.291252
2023-03-20T09:05:57.531Z,51.291325
2023-03-20T09:06:57.512Z,51.291294
2023-03-20T09:07:57.480Z,51.291325
2023-03-20T09:08:57.482Z,51.291317
2023-03-20T09:09:57.506Z,51.291260
2023-03-20T09:10:57.450Z,51.291229
2023-03-20T09:11:57.452Z,51.291229
2023-03-20T09:12:57.420Z,51.291275
2023-03-20T09:13:57.408Z,51.291344
2023-03-20T09:14:57.438Z,51.291313
2023-03-20T09:15:57.476Z,51.291309
2023-03-20T09:16:57.365Z,51.291302
2023-03-20T09:17:57.430Z,51.291374
2023-03-20T09:18:57.373Z,51.291321
2023-03-20T09:19:57.347Z,51.291393
2023-03-20T09:20:57.360Z,51.291328
2023-03-20T09:21:57.306Z,51.291206
2023-03-20T09:22:57.353Z,51.291126
2023-03-20T09:23:57.302Z,51.291313
2023-03-20T09:24:57.316Z,51.291389
2023-03-20T09:25:57.309Z,51.291393
2023-03-20T09:26:57.288Z,51.291252
2023-03-20T09:27:57.262Z,51.291321
2023-03-20T09:28:57.339Z,51.291351
2023-03-20T09:29:57.229Z,51.291382
2023-03-20T09:30:57.334Z,51.291294
2023-03-20T09:31:57.274Z,51.291306
2023-03-20T09:32:57.207Z,51.291286
2023-03-20T09:33:57.213Z,51.291241
2023-03-20T09:34:57.196Z,51.291233
2023-03-20T09:35:57.244Z,51.291210
2023-03-20T09:36:57.170Z,51.291313
2023-03-20T09:37:57.137Z,51.291256
2023-03-20T09:38:57.134Z,51.291256
2023-03-20T09:39:57.120Z,51.291328
2023-03-20T09:40:57.195Z,51.291351
2023-03-20T09:41:57.859Z,51.291222
2023-03-20T09:42:57.080Z,51.291164
2023-03-20T09:43:57.066Z,51.291203
2023-03-20T09:44:57.117Z,51.291229
2023-03-20T09:45:57.052Z,51.291267
2023-03-20T09:47:12.534Z,51.291321
2023-03-20T09:47:57.050Z,51.291084
2023-03-20T09:48:57.009Z,51.291203
2023-03-20T09:49:57.045Z,51.291225
2023-03-20T09:50:57.008Z,51.291317
2023-03-20T09:51:56.974Z,51.291306
2023-03-20T09:52:56.978Z,51.291096
2023-03-20T09:53:59.858Z,51.291111
2023-03-20T09:54:56.948Z,51.291145
2023-03-20T09:55:57.002Z,51.290974
2023-03-20T09:56:56.930Z,51.291157
2023-03-20T09:57:56.944Z,51.291264
2023-03-20T09:58:56.959Z,51.291225
2023-03-20T09:59:56.856Z,51.291237
2023-03-20T10:00:57.092Z,51.290951
2023-03-20T10:01:56.875Z,51.291077
2023-03-20T10:02:56.904Z,51.291134
2023-03-20T10:03:56.846Z,51.291168
2023-03-20T10:04:56.889Z,51.291107
2023-03-20T10:05:56.831Z,51.291290
2023-03-20T10:06:56.830Z,51.291351
2023-03-20T10:07:56.793Z,51.291363
2023-03-20T10:08:56.806Z,51.291145
2023-03-20T10:09:56.905Z,51.291130
2023-03-20T10:10:56.721Z,51.291149
2023-03-20T10:11:56.734Z,51.291164
2023-03-20T10:12:56.712Z,51.291126
2023-03-20T10:13:56.801Z,51.291168
2023-03-20T10:14:56.779Z,51.291222
2023-03-20T10:15:56.714Z,51.290993
2023-03-20T10:16:56.692Z,51.291031
2023-03-20T10:17:56.650Z,51.291080
2023-03-20T10:18:56.685Z,51.291153
2023-03-20T10:19:56.686Z,51.291161
2023-03-20T10:20:56.639Z,51.291309
2023-03-20T10:21:56.666Z,51.291168
2023-03-20T10:22:56.611Z,51.291233
2023-03-20T10:23:56.609Z,51.291233
2023-03-20T10:24:56.622Z,51.291298
2023-03-20T10:25:56.592Z,51.291260
2023-03-20T10:26:56.591Z,51.291172
2023-03-20T10:27:56.547Z,51.291260
2023-03-20T10:28:56.543Z,51.291313
2023-03-20T10:29:56.524Z,51.291218
2023-03-20T10:30:56.559Z,51.291183
2023-03-20T10:31:56.520Z,51.291214
2023-03-20T10:32:56.549Z,51.291199
2023-03-20T10:33:56.512Z,51.291206
2023-03-20T10:34:56.472Z,51.291214
2023-03-20T10:35:56.562Z,51.291176
2023-03-20T10:36:56.430Z,51.291241
2023-03-20T10:37:56.461Z,51.291218
2023-03-20T10:38:56.461Z,51.291195
2023-03-20T10:39:56.410Z,51.291206
2023-03-20T10:40:56.415Z,51.291344
2023-03-20T10:41:56.395Z,51.291290
2023-03-20T10:42:56.422Z,51.291344
2023-03-20T10:43:56.400Z,51.291313
2023-03-20T10:44:56.368Z,51.291630
2023-03-20T10:45:57.398Z,51.291550
2023-03-20T10:46:56.475Z,51.291328
2023-03-20T10:47:56.380Z,51.291351
2023-03-20T10:48:56.313Z,51.291233
2023-03-20T10:49:56.315Z,51.291504
2023-03-20T10:50:56.368Z,51.291512
2023-03-20T10:51:56.294Z,51.291462
2023-03-20T10:52:56.272Z,51.291534
2023-03-20T10:53:56.286Z,51.291470
2023-03-20T10:54:56.276Z,51.291607
2023-03-20T10:55:56.761Z,51.291790
2023-03-20T10:56:56.231Z,51.291996
2023-03-20T10:57:56.232Z,51.291847
2023-03-20T10:58:56.227Z,51.291573
2023-03-20T10:59:56.219Z,51.291462
2023-03-20T11:00:56.427Z,51.291489
2023-03-20T11:01:56.258Z,51.291012
2023-03-20T11:02:56.160Z,51.290916
2023-03-20T11:03:56.161Z,51.290871
2023-03-20T11:04:56.629Z,51.290936
2023-03-20T11:06:08.884Z,51.290752
2023-03-20T11:06:57.119Z,51.290653
2023-03-20T11:07:56.150Z,51.290638
2023-03-20T11:08:56.108Z,51.290401
2023-03-20T11:09:56.102Z,51.290699
2023-03-20T11:10:58.297Z,51.291149
2023-03-20T11:11:56.113Z,51.291470
2023-03-20T11:12:56.075Z,51.291504
2023-03-20T11:13:56.066Z,51.291416
2023-03-20T11:14:56.033Z,51.291527
2023-03-20T11:15:56.023Z,51.291397
2023-03-20T11:16:56.161Z,51.291428
2023-03-20T11:17:55.994Z,51.291275
2023-03-20T11:18:56.037Z,51.291206
2023-03-20T11:19:55.982Z,51.291199
2023-03-20T11:20:55.976Z,51.291199
2023-03-20T11:21:56.029Z,51.291241
2023-03-20T11:22:55.953Z,51.291161
2023-03-20T11:23:55.980Z,51.291275